createdAt,value
2019-01-23T00:00:16.151Z,-1.60
2019-01-23T00:02:44.920Z,-1.60
2019-01-23T00:05:13.682Z,-1.60
2019-01-23T00:07:42.350Z,-1.60
2019-01-23T00:10:11.206Z,-1.60
2019-01-23T00:12:39.830Z,-1.60
2019-01-23T00:15:08.636Z,-1.60
2019-01-23T00:17:37.325Z,-1.60
2019-01-23T00:20:08.152Z,-1.60
2019-01-23T00:22:36.789Z,-1.60
2019-01-23T00:25:08.486Z,-1.60
2019-01-23T00:27:37.184Z,-1.60
2019-01-23T00:30:14.032Z,-1.60
2019-01-23T00:32:42.736Z,-1.60
2019-01-23T00:35:11.584Z,-1.60
2019-01-23T00:37:40.337Z,-1.60
2019-01-23T00:40:12.242Z,-1.60
2019-01-23T00:42:40.933Z,-1.60
2019-01-23T00:45:12.475Z,-1.60
2019-01-23T00:47:41.163Z,-1.60
2019-01-23T00:50:11.208Z,-1.60
2019-01-23T00:52:39.881Z,-1.60
2019-01-23T00:55:11.715Z,-1.50
2019-01-23T00:57:40.374Z,-1.50
2019-01-23T01:00:18.176Z,-1.60
2019-01-23T01:02:47.244Z,-1.60
2019-01-23T01:05:17.174Z,-1.50
2019-01-23T01:07:45.969Z,-1.50
2019-01-23T01:10:17.702Z,-1.50
2019-01-23T01:12:46.561Z,-1.50
2019-01-23T01:15:15.694Z,-1.50
2019-01-23T01:17:44.461Z,-1.60
2019-01-23T01:20:16.746Z,-1.60
2019-01-23T01:22:45.537Z,-1.60
2019-01-23T01:25:16.726Z,-1.60
2019-01-23T01:27:45.458Z,-1.60
2019-01-23T01:30:17.124Z,-1.60
2019-01-23T01:32:45.920Z,-1.60
2019-01-23T01:35:14.752Z,-1.60
2019-01-23T01:37:43.544Z,-1.60
2019-01-23T01:40:14.567Z,-1.60
2019-01-23T01:42:43.360Z,-1.60
2019-01-23T01:45:13.608Z,-1.60
2019-01-23T01:47:42.357Z,-1.50
2019-01-23T01:50:16.862Z,-1.50
2019-01-23T01:52:45.588Z,-1.50
2019-01-23T01:55:14.463Z,-1.50
2019-01-23T01:57:43.124Z,-1.50
2019-01-23T02:00:16.820Z,-1.50
2019-01-23T02:02:45.539Z,-1.50
2019-01-23T02:05:14.510Z,-1.50
2019-01-23T02:07:43.238Z,-1.50
2019-01-23T02:10:17.319Z,-1.50
2019-01-23T02:12:46.051Z,-1.50
2019-01-23T02:15:15.835Z,-1.50
2019-01-23T02:17:44.561Z,-1.50
2019-01-23T02:20:18.561Z,-1.50
2019-01-23T02:22:47.330Z,-1.50
2019-01-23T02:25:16.133Z,-1.50
2019-01-23T02:27:46.025Z,-1.50
2019-01-23T02:30:19.752Z,-1.60
2019-01-23T02:32:48.478Z,-1.60
2019-01-23T02:35:17.247Z,-1.60
2019-01-23T02:37:45.858Z,-1.60
2019-01-23T02:40:17.354Z,-1.70
2019-01-23T02:42:46.119Z,-1.70
2019-01-23T02:45:15.850Z,-1.60
2019-01-23T02:47:44.624Z,-1.60
2019-01-23T02:50:14.097Z,-1.60
2019-01-23T02:52:42.868Z,-1.60
2019-01-23T02:55:12.296Z,-1.50
2019-01-23T02:57:41.084Z,-1.50
2019-01-23T03:00:15.554Z,-1.50
2019-01-23T03:02:44.722Z,-1.50
2019-01-23T03:05:15.640Z,-1.50
2019-01-23T03:07:44.424Z,-1.50
2019-01-23T03:10:17.835Z,-1.50
2019-01-23T03:12:46.666Z,-1.50
2019-01-23T03:15:17.223Z,-1.40
2019-01-23T03:17:45.926Z,-1.50
2019-01-23T03:20:16.353Z,-1.40
2019-01-23T03:22:45.126Z,-1.40
2019-01-23T03:25:15.079Z,-1.40
2019-01-23T03:27:43.834Z,-1.40
2019-01-23T03:30:15.318Z,-1.40
2019-01-23T03:32:44.048Z,-1.40
2019-01-23T03:35:12.786Z,-1.40
2019-01-23T03:37:41.475Z,-1.40
2019-01-23T03:40:13.370Z,-1.30
2019-01-23T03:42:41.955Z,-1.40
2019-01-23T03:45:12.143Z,-1.30
2019-01-23T03:47:40.870Z,-1.30
2019-01-23T03:50:12.335Z,-1.30
2019-01-23T03:52:41.121Z,-1.30
2019-01-23T03:55:11.418Z,-1.30
2019-01-23T03:57:40.188Z,-1.40
2019-01-23T04:00:14.707Z,-1.30
2019-01-23T04:02:43.521Z,-1.30
2019-01-23T04:05:12.243Z,-1.30
2019-01-23T04:07:40.894Z,-1.40
2019-01-23T04:10:14.746Z,-1.40
2019-01-23T04:12:43.476Z,-1.30
2019-01-23T04:15:16.883Z,-1.30
2019-01-23T04:17:45.598Z,-1.30
2019-01-23T04:20:19.517Z,-1.30
2019-01-23T04:22:48.265Z,-1.40
2019-01-23T04:25:17.107Z,-1.40
2019-01-23T04:27:45.737Z,-1.30
2019-01-23T04:30:24.629Z,-1.40
2019-01-23T04:32:53.343Z,-1.30
2019-01-23T04:35:22.180Z,-1.30
2019-01-23T04:37:50.990Z,-1.30
2019-01-23T04:40:19.721Z,-1.30
2019-01-23T04:42:48.490Z,-1.30
2019-01-23T04:45:17.724Z,-1.30
2019-01-23T04:47:46.458Z,-1.30
2019-01-23T04:50:17.137Z,-1.30
2019-01-23T04:52:59.937Z,-1.30
2019-01-23T04:55:28.711Z,-1.30
2019-01-23T04:57:57.427Z,-1.30
2019-01-23T05:00:27.723Z,-1.30
2019-01-23T05:02:56.441Z,-1.30
2019-01-23T05:05:25.189Z,-1.30
2019-01-23T05:07:53.992Z,-1.30
2019-01-23T05:10:22.747Z,-1.30
2019-01-23T05:12:51.518Z,-1.30
2019-01-23T05:15:20.246Z,-1.30
2019-01-23T05:17:49.008Z,-1.30
2019-01-23T05:20:17.781Z,-1.30
2019-01-23T05:22:46.495Z,-1.30
2019-01-23T05:25:15.225Z,-1.30
2019-01-23T05:27:43.993Z,-1.30
2019-01-23T05:30:18.266Z,-1.40
2019-01-23T05:32:46.926Z,-1.40
2019-01-23T05:35:15.649Z,-1.40
2019-01-23T05:37:44.337Z,-1.40
2019-01-23T05:40:13.522Z,-1.40
2019-01-23T05:42:42.215Z,-1.50
2019-01-23T05:45:13.277Z,-1.50
2019-01-23T05:47:42.012Z,-1.60
2019-01-23T05:50:16.250Z,-1.60
2019-01-23T05:52:44.897Z,-1.70
2019-01-23T05:55:14.428Z,-1.70
2019-01-23T05:57:43.198Z,-1.80
2019-01-23T06:00:15.040Z,-1.80
2019-01-23T06:02:43.775Z,-1.90
2019-01-23T06:05:13.106Z,-1.90
2019-01-23T06:07:41.737Z,-2.00
2019-01-23T06:10:11.330Z,-2.00
2019-01-23T06:12:40.129Z,-2.00
2019-01-23T06:15:16.556Z,-2.10
2019-01-23T06:17:45.254Z,-2.10
2019-01-23T06:20:16.639Z,-2.10
2019-01-23T06:22:45.480Z,-2.20
2019-01-23T06:25:14.351Z,-2.10
2019-01-23T06:27:43.109Z,-2.20
2019-01-23T06:30:15.119Z,-2.20
2019-01-23T06:32:43.788Z,-2.20
2019-01-23T06:35:12.650Z,-2.20
2019-01-23T06:37:41.404Z,-2.20
2019-01-23T06:40:12.744Z,-2.20
2019-01-23T06:42:41.448Z,-2.20
2019-01-23T06:45:12.389Z,-2.20
2019-01-23T06:47:41.247Z,-2.20
2019-01-23T06:50:15.133Z,-2.20
2019-01-23T06:52:43.785Z,-2.20
2019-01-23T06:55:12.580Z,-2.20
2019-01-23T06:57:41.185Z,-2.20
2019-01-23T07:00:17.326Z,-2.20
2019-01-23T07:02:46.372Z,-2.20
2019-01-23T07:05:15.465Z,-2.10
2019-01-23T07:07:44.130Z,-2.20
2019-01-23T07:10:18.129Z,-2.20
2019-01-23T07:12:47.751Z,-2.20
2019-01-23T07:15:16.553Z,-2.20
2019-01-23T07:17:45.290Z,-2.10
2019-01-23T07:20:22.405Z,-2.10
2019-01-23T07:22:50.994Z,-2.10
2019-01-23T07:25:20.068Z,-2.10
2019-01-23T07:27:48.761Z,-2.00
2019-01-23T07:30:24.201Z,-2.10
2019-01-23T07:32:50.756Z,-2.00
2019-01-23T07:35:19.466Z,-2.00
2019-01-23T07:37:48.140Z,-2.00
2019-01-23T07:40:16.869Z,-2.00
2019-01-23T07:42:45.592Z,-2.00
2019-01-23T07:45:19.693Z,-1.90
2019-01-23T07:47:48.409Z,-1.90
2019-01-23T07:50:17.297Z,-1.90
2019-01-23T07:52:46.658Z,-1.90
2019-01-23T07:55:17.485Z,-1.90
2019-01-23T07:57:46.275Z,-1.80
2019-01-23T08:00:20.467Z,-1.80
2019-01-23T08:02:49.228Z,-1.80
2019-01-23T08:05:20.565Z,-1.70
2019-01-23T08:07:49.343Z,-1.70
2019-01-23T08:10:20.469Z,-1.70
2019-01-23T08:12:49.294Z,-1.70
2019-01-23T08:15:23.646Z,-1.70
2019-01-23T08:17:52.337Z,-1.70
2019-01-23T08:20:23.137Z,-1.60
2019-01-23T08:22:51.831Z,-1.60
2019-01-23T08:25:20.530Z,-1.60
2019-01-23T08:27:49.189Z,-1.60
2019-01-23T08:30:20.323Z,-1.60
2019-01-23T08:32:49.087Z,-1.60
2019-01-23T08:35:19.056Z,-1.50
2019-01-23T08:37:47.820Z,-1.50
2019-01-23T08:40:17.955Z,-1.50
2019-01-23T08:42:46.741Z,-1.50
2019-01-23T08:45:15.837Z,-1.50
2019-01-23T08:47:44.615Z,-1.40
2019-01-23T08:50:24.962Z,-1.40
2019-01-23T08:52:53.624Z,-1.30
2019-01-23T08:55:23.017Z,-1.20
2019-01-23T08:57:51.773Z,-1.20
2019-01-23T09:00:20.536Z,-1.10
2019-01-23T09:02:49.167Z,-1.10
2019-01-23T09:05:17.893Z,-1.10
2019-01-23T09:07:46.656Z,-1.10
2019-01-23T09:10:18.326Z,-1.10
2019-01-23T09:12:46.942Z,-1.00
2019-01-23T09:15:16.860Z,-1.00
2019-01-23T09:17:45.636Z,-1.00
2019-01-23T09:20:21.738Z,-0.90
2019-01-23T09:22:50.535Z,-0.90
2019-01-23T09:25:26.740Z,-0.80
2019-01-23T09:27:55.531Z,-0.80
2019-01-23T09:30:27.132Z,-0.70
2019-01-23T09:33:07.638Z,-0.60
2019-01-23T09:35:54.532Z,-0.70
2019-01-23T09:38:38.434Z,-0.60
2019-01-23T09:41:13.018Z,-0.60
2019-01-23T09:43:59.859Z,-0.50
2019-01-23T09:46:49.654Z,-0.50
2019-01-23T09:49:27.360Z,-0.60
2019-01-23T09:52:23.398Z,-0.70
2019-01-23T09:54:52.043Z,-0.70
2019-01-23T09:57:20.718Z,-0.60
2019-01-23T09:59:49.480Z,-0.60
2019-01-23T10:02:18.112Z,-0.50
2019-01-23T10:04:46.723Z,-0.50
2019-01-23T10:07:15.371Z,-0.40
2019-01-23T10:09:43.985Z,-0.30
2019-01-23T10:12:12.603Z,-0.30
2019-01-23T10:14:41.387Z,-0.30
2019-01-23T10:17:10.069Z,-0.20
2019-01-23T10:19:38.662Z,-0.30
2019-01-23T10:22:07.454Z,-0.20
2019-01-23T10:24:36.256Z,-0.10
2019-01-23T10:27:04.970Z,-0.10
2019-01-23T10:29:33.674Z,-0.20
2019-01-23T10:32:02.332Z,-0.20
2019-01-23T10:34:32.393Z,-0.10
2019-01-23T10:37:01.282Z,-0.10
2019-01-23T10:39:29.930Z,-0.10
2019-01-23T10:41:58.553Z,-0.10
2019-01-23T10:44:27.208Z,0.00
2019-01-23T10:46:55.905Z,0.00
2019-01-23T10:49:24.557Z,-0.10
2019-01-23T10:51:53.251Z,-0.20
2019-01-23T10:54:21.905Z,-0.10
2019-01-23T10:56:50.634Z,-0.10
2019-01-23T10:59:19.334Z,-0.10
2019-01-23T11:01:47.918Z,0.00
2019-01-23T11:04:16.597Z,-0.10
2019-01-23T11:06:45.353Z,0.00
2019-01-23T11:09:14.194Z,0.00
2019-01-23T11:11:42.799Z,0.10
2019-01-23T11:14:11.527Z,0.20
2019-01-23T11:16:40.169Z,0.40
2019-01-23T11:19:08.858Z,0.50
2019-01-23T11:21:37.465Z,0.70
2019-01-23T11:24:06.247Z,0.80
2019-01-23T11:26:34.958Z,0.90
2019-01-23T11:29:03.717Z,0.80
2019-01-23T11:31:32.371Z,0.60
2019-01-23T11:34:01.084Z,0.80
2019-01-23T11:36:29.708Z,0.80
2019-01-23T11:38:58.364Z,1.10
2019-01-23T11:41:26.963Z,1.40
2019-01-23T11:43:55.583Z,1.50
2019-01-23T11:46:24.270Z,1.60
2019-01-23T11:48:53.003Z,1.70
2019-01-23T11:51:21.650Z,1.80
2019-01-23T11:53:50.318Z,1.80
2019-01-23T11:56:19.096Z,1.80
2019-01-23T11:58:47.685Z,1.70
2019-01-23T12:01:16.450Z,1.90
2019-01-23T12:03:45.069Z,1.70
2019-01-23T12:06:13.717Z,1.50
2019-01-23T12:08:42.419Z,1.50
2019-01-23T12:11:11.084Z,1.70
2019-01-23T12:13:39.861Z,2.40
2019-01-23T12:16:08.507Z,2.90
2019-01-23T12:18:37.215Z,3.20
2019-01-23T12:21:05.935Z,3.40
2019-01-23T12:23:34.616Z,3.60
2019-01-23T12:26:03.228Z,3.80
2019-01-23T12:28:31.920Z,3.70
2019-01-23T12:31:00.577Z,3.50
2019-01-23T12:33:29.287Z,3.30
2019-01-23T12:35:57.943Z,3.10
2019-01-23T12:38:26.514Z,3.20
2019-01-23T12:40:55.217Z,2.80
2019-01-23T12:43:23.980Z,2.40
2019-01-23T12:45:52.561Z,2.20
2019-01-23T12:48:21.326Z,1.90
2019-01-23T12:50:50.049Z,1.60
2019-01-23T12:53:18.682Z,1.90
2019-01-23T12:55:47.262Z,2.10
2019-01-23T12:58:15.975Z,2.20
2019-01-23T13:00:44.845Z,2.20
2019-01-23T13:03:13.610Z,2.30
2019-01-23T13:05:42.329Z,2.60
2019-01-23T13:08:11.122Z,3.00
2019-01-23T13:10:39.696Z,3.00
2019-01-23T13:13:08.449Z,2.90
2019-01-23T13:15:37.173Z,2.40
2019-01-23T13:18:05.967Z,2.30
2019-01-23T13:20:34.684Z,2.00
2019-01-23T13:23:03.325Z,2.10
2019-01-23T13:25:31.931Z,2.10
2019-01-23T13:28:02.086Z,2.10
2019-01-23T13:30:30.792Z,1.80
2019-01-23T13:32:59.532Z,1.60
2019-01-23T13:35:31.322Z,1.50
2019-01-23T13:38:00.379Z,1.60
2019-01-23T13:40:34.417Z,1.80
2019-01-23T13:43:03.664Z,1.90
2019-01-23T13:45:32.433Z,1.70
2019-01-23T13:48:01.685Z,1.50
2019-01-23T13:50:30.369Z,1.20
2019-01-23T13:52:59.236Z,1.10
2019-01-23T13:55:28.029Z,1.00
2019-01-23T13:57:56.739Z,0.80
2019-01-23T14:00:31.217Z,0.90
2019-01-23T14:03:00.046Z,0.90
2019-01-23T14:05:28.801Z,0.90
2019-01-23T14:07:57.565Z,1.20
2019-01-23T14:10:26.590Z,1.20
2019-01-23T14:12:55.733Z,0.90
2019-01-23T14:15:33.430Z,0.80
2019-01-23T14:18:02.257Z,0.80
2019-01-23T14:20:30.931Z,0.40
2019-01-23T14:22:59.804Z,0.30
2019-01-23T14:25:28.588Z,0.10
2019-01-23T14:27:57.204Z,0.10
2019-01-23T14:30:34.073Z,0.20
2019-01-23T14:33:02.818Z,0.30
2019-01-23T14:35:32.170Z,0.10
2019-01-23T14:38:01.106Z,0.10
2019-01-23T14:40:29.893Z,0.20
2019-01-23T14:42:58.719Z,0.20
2019-01-23T14:45:28.789Z,0.20
2019-01-23T14:47:57.609Z,0.20
2019-01-23T14:50:26.557Z,0.20
2019-01-23T14:52:55.489Z,0.10
2019-01-23T14:55:24.556Z,0.00
2019-01-23T14:57:53.348Z,-0.30
2019-01-23T15:00:27.930Z,-0.40
2019-01-23T15:02:57.093Z,-0.40
2019-01-23T15:05:25.983Z,-0.40
2019-01-23T15:07:54.806Z,-0.50
2019-01-23T15:10:26.265Z,-0.60
2019-01-23T15:12:55.497Z,-0.60
2019-01-23T15:15:24.453Z,-0.60
2019-01-23T15:17:53.780Z,-0.70
2019-01-23T15:20:56.599Z,-0.70
2019-01-23T15:23:25.266Z,-0.70
2019-01-23T15:25:53.988Z,-0.70
2019-01-23T15:28:22.777Z,-0.80
2019-01-23T15:30:51.609Z,-0.80
2019-01-23T15:33:20.331Z,-0.90
2019-01-23T15:35:48.942Z,-0.80
2019-01-23T15:38:17.827Z,-0.80
2019-01-23T15:40:46.605Z,-0.80
2019-01-23T15:43:15.318Z,-0.90
2019-01-23T15:45:44.088Z,-0.90
2019-01-23T15:48:13.107Z,-1.00
2019-01-23T15:50:42.097Z,-1.00
2019-01-23T15:53:11.537Z,-1.10
2019-01-23T15:55:40.881Z,-1.20
2019-01-23T15:58:10.233Z,-1.20
2019-01-23T16:00:39.214Z,-1.30
2019-01-23T16:03:08.321Z,-1.30
2019-01-23T16:05:37.083Z,-1.30
2019-01-23T16:08:06.025Z,-1.30
2019-01-23T16:10:35.092Z,-1.30
2019-01-23T16:13:03.847Z,-1.40
2019-01-23T16:15:33.925Z,-1.40
2019-01-23T16:18:02.856Z,-1.50
2019-01-23T16:20:31.595Z,-1.50
2019-01-23T16:23:00.459Z,-1.50
2019-01-23T16:25:29.262Z,-1.50
2019-01-23T16:27:57.920Z,-1.50
2019-01-23T16:30:32.651Z,-1.60
2019-01-23T16:33:01.401Z,-1.60
2019-01-23T16:35:30.273Z,-1.60
2019-01-23T16:37:59.114Z,-1.60
2019-01-23T16:40:27.963Z,-1.60
2019-01-23T16:42:56.766Z,-1.60
2019-01-23T16:45:25.592Z,-1.60
2019-01-23T16:47:54.819Z,-1.60
2019-01-23T16:50:26.829Z,-1.60
2019-01-23T16:52:56.338Z,-1.60
2019-01-23T16:55:26.416Z,-1.60
2019-01-23T16:57:56.466Z,-1.60
2019-01-23T17:00:27.720Z,-1.60
2019-01-23T17:02:57.474Z,-1.70
2019-01-23T17:05:29.450Z,-1.70
2019-01-23T17:08:00.086Z,-1.70
2019-01-23T17:10:29.436Z,-1.70
2019-01-23T17:12:58.554Z,-1.80
2019-01-23T17:15:27.745Z,-1.80
2019-01-23T17:17:56.538Z,-1.80
2019-01-23T17:20:34.506Z,-1.90
2019-01-23T17:23:03.420Z,-2.00
2019-01-23T17:25:32.587Z,-2.10
2019-01-23T17:28:02.721Z,-2.00
2019-01-23T17:30:32.148Z,-2.10
2019-01-23T17:33:01.417Z,-2.10
2019-01-23T17:35:30.289Z,-2.10
2019-01-23T17:37:59.593Z,-2.10
2019-01-23T17:40:28.541Z,-2.10
2019-01-23T17:42:57.640Z,-2.10
2019-01-23T17:45:35.514Z,-2.10
2019-01-23T17:48:06.227Z,-2.10
2019-01-23T17:50:35.189Z,-2.10
2019-01-23T17:53:04.171Z,-2.00
2019-01-23T17:55:38.114Z,-2.00
2019-01-23T17:58:09.490Z,-2.00
2019-01-23T18:00:40.020Z,-2.00
2019-01-23T18:03:12.523Z,-2.00
2019-01-23T18:05:41.859Z,-2.00
2019-01-23T18:08:11.305Z,-2.10
2019-01-23T18:10:40.617Z,-2.00
2019-01-23T18:13:10.066Z,-2.00
2019-01-23T18:15:41.358Z,-2.00
2019-01-23T18:18:12.880Z,-2.00
2019-01-23T18:20:42.295Z,-2.00
2019-01-23T18:23:11.769Z,-2.00
2019-01-23T18:25:41.204Z,-2.00
2019-01-23T18:28:10.571Z,-2.00
2019-01-23T18:30:43.218Z,-2.00
2019-01-23T18:33:15.610Z,-2.00
2019-01-23T18:35:53.694Z,-2.00
2019-01-23T18:38:41.329Z,-2.00
2019-01-23T18:41:38.089Z,-2.00
2019-01-23T18:44:28.719Z,-2.00
2019-01-23T18:47:08.162Z,-2.00
2019-01-23T18:49:57.117Z,-2.00
2019-01-23T18:52:26.780Z,-2.00
2019-01-23T18:54:56.667Z,-2.00
2019-01-23T18:57:32.030Z,-2.00
2019-01-23T19:00:01.709Z,-2.10
2019-01-23T19:02:31.346Z,-2.10
2019-01-23T19:05:01.340Z,-2.10
2019-01-23T19:07:31.118Z,-2.00
2019-01-23T19:10:01.085Z,-2.00
2019-01-23T19:12:30.739Z,-2.10
2019-01-23T19:15:00.337Z,-2.10
2019-01-23T19:17:30.231Z,-2.10
2019-01-23T19:19:59.957Z,-2.10
2019-01-23T19:22:29.602Z,-2.10
2019-01-23T19:24:59.074Z,-2.10
2019-01-23T19:27:28.988Z,-2.10
2019-01-23T19:29:58.828Z,-2.10
2019-01-23T19:32:28.733Z,-2.10
2019-01-23T19:34:58.659Z,-2.10
2019-01-23T19:37:47.567Z,-2.10
2019-01-23T19:40:17.933Z,-2.10
2019-01-23T19:42:47.787Z,-2.10
2019-01-23T19:45:19.760Z,-2.10
2019-01-23T19:47:49.330Z,-2.20
2019-01-23T19:50:18.968Z,-2.20
2019-01-23T19:52:48.577Z,-2.20
2019-01-23T19:55:18.702Z,-2.10
2019-01-23T19:57:48.285Z,-2.10
2019-01-23T20:00:20.417Z,-2.10
2019-01-23T20:02:50.277Z,-2.20
2019-01-23T20:05:23.113Z,-2.10
2019-01-23T20:07:52.562Z,-2.10
2019-01-23T20:10:24.198Z,-2.10
2019-01-23T20:12:53.933Z,-2.20
2019-01-23T20:15:23.636Z,-2.20
2019-01-23T20:17:54.950Z,-2.20
2019-01-23T20:20:24.608Z,-2.20
2019-01-23T20:22:54.014Z,-2.30
2019-01-23T20:25:26.125Z,-2.30
2019-01-23T20:27:55.908Z,-2.30
2019-01-23T20:30:34.155Z,-2.30
2019-01-23T20:33:03.699Z,-2.30
2019-01-23T20:35:33.054Z,-2.40
2019-01-23T20:38:02.509Z,-2.40
2019-01-23T20:40:31.762Z,-2.40
2019-01-23T20:43:01.126Z,-2.30
2019-01-23T20:45:30.765Z,-2.30
2019-01-23T20:48:00.425Z,-2.40
2019-01-23T20:50:31.325Z,-2.30
2019-01-23T20:53:00.912Z,-2.40
2019-01-23T20:55:30.329Z,-2.40
2019-01-23T20:57:59.774Z,-2.40
2019-01-23T21:00:31.413Z,-2.40
2019-01-23T21:03:00.876Z,-2.40
2019-01-23T21:05:30.422Z,-2.40
2019-01-23T21:07:59.957Z,-2.50
2019-01-23T21:10:29.413Z,-2.50
2019-01-23T21:12:58.956Z,-2.60
2019-01-23T21:15:30.199Z,-2.60
2019-01-23T21:17:59.306Z,-2.60
2019-01-23T21:20:29.788Z,-2.60
2019-01-23T21:22:58.953Z,-2.60
2019-01-23T21:25:28.341Z,-2.60
2019-01-23T21:27:57.758Z,-2.70
2019-01-23T21:30:28.277Z,-2.70
2019-01-23T21:32:57.633Z,-2.70
2019-01-23T21:35:27.181Z,-2.70
2019-01-23T21:37:56.528Z,-2.70
2019-01-23T21:40:30.587Z,-2.70
2019-01-23T21:42:59.953Z,-2.70
2019-01-23T21:45:29.933Z,-2.80
2019-01-23T21:47:59.832Z,-2.80
2019-01-23T21:50:28.849Z,-2.80
2019-01-23T21:52:57.999Z,-2.80
2019-01-23T21:55:27.023Z,-2.80
2019-01-23T21:57:56.016Z,-2.80
2019-01-23T22:00:30.968Z,-2.90
2019-01-23T22:03:01.913Z,-2.90
2019-01-23T22:05:30.977Z,-2.90
2019-01-23T22:07:59.849Z,-2.80
2019-01-23T22:10:28.558Z,-2.90
2019-01-23T22:12:57.315Z,-2.90
2019-01-23T22:15:28.709Z,-2.90
2019-01-23T22:17:57.602Z,-2.90
2019-01-23T22:20:26.950Z,-2.90
2019-01-23T22:22:55.787Z,-2.90
2019-01-23T22:25:25.818Z,-2.90
2019-01-23T22:27:55.454Z,-3.00
2019-01-23T22:30:26.747Z,-3.00
2019-01-23T22:32:55.546Z,-3.00
2019-01-23T22:35:24.383Z,-3.00
2019-01-23T22:37:53.333Z,-3.00
2019-01-23T22:40:22.369Z,-2.90
2019-01-23T22:42:51.241Z,-2.90
2019-01-23T22:45:21.952Z,-2.90
2019-01-23T22:47:50.832Z,-2.90
2019-01-23T22:50:27.487Z,-3.00
2019-01-23T22:52:56.267Z,-2.90
2019-01-23T22:55:25.146Z,-2.90
2019-01-23T22:57:54.074Z,-3.00
2019-01-23T23:00:50.758Z,-3.00
2019-01-23T23:03:19.619Z,-2.90
2019-01-23T23:05:48.331Z,-2.90
2019-01-23T23:08:17.114Z,-3.00
2019-01-23T23:10:45.856Z,-3.00
2019-01-23T23:13:14.952Z,-3.00
2019-01-23T23:15:44.017Z,-3.00
2019-01-23T23:18:12.855Z,-3.00
2019-01-23T23:20:41.648Z,-3.00
2019-01-23T23:23:10.382Z,-3.00
2019-01-23T23:25:39.117Z,-3.00
2019-01-23T23:28:07.851Z,-3.00
2019-01-23T23:30:36.626Z,-3.00
2019-01-23T23:33:05.489Z,-3.00
2019-01-23T23:35:34.261Z,-3.00
2019-01-23T23:38:02.920Z,-3.00
2019-01-23T23:40:31.620Z,-3.00
2019-01-23T23:43:00.416Z,-3.00
2019-01-23T23:45:29.186Z,-3.00
2019-01-23T23:47:57.783Z,-2.90
2019-01-23T23:50:26.436Z,-3.00
2019-01-23T23:52:55.021Z,-3.00
2019-01-23T23:55:23.689Z,-3.10
2019-01-23T23:57:52.401Z,-3.00
